sensor_id;sensor_type;location;lat;lon;timestamp;P1;durP1;ratioP1;P2;durP2;ratioP2
15102;SDS011;7652;53.584;9.998;2023-02-28T00:00:27;7.93;;;1.90;;
15102;SDS011;7652;53.584;9.998;2023-02-28T00:03:30;5.30;;;1.70;;
15102;SDS011;7652;53.584;9.998;2023-02-28T00:06:36;3.03;;;1.70;;
15102;SDS011;7652;53.584;9.998;2023-02-28T00:09:39;3.73;;;1.30;;
15102;SDS011;7652;53.584;9.998;2023-02-28T00:12:43;1.30;;;1.20;;
15102;SDS011;7652;53.584;9.998;2023-02-28T00:15:46;2.43;;;1.20;;
15102;SDS011;7652;53.584;9.998;2023-02-28T00:18:49;3.83;;;1.30;;
15102;SDS011;7652;53.584;9.998;2023-02-28T00:21:53;3.80;;;1.40;;
15102;SDS011;7652;53.584;9.998;2023-02-28T00:24:56;2.53;;;1.40;;
15102;SDS011;7652;53.584;9.998;2023-02-28T00:28:00;2.83;;;1.20;;
15102;SDS011;7652;53.584;9.998;2023-02-28T00:31:03;3.73;;;1.70;;
15102;SDS011;7652;53.584;9.998;2023-02-28T00:34:07;1.47;;;1.07;;
15102;SDS011;7652;53.584;9.998;2023-02-28T00:37:10;2.30;;;1.40;;
15102;SDS011;7652;53.584;9.998;2023-02-28T00:40:14;3.20;;;1.23;;
15102;SDS011;7652;53.584;9.998;2023-02-28T00:43:18;2.60;;;1.37;;
15102;SDS011;7652;53.584;9.998;2023-02-28T00:46:21;3.07;;;1.50;;
15102;SDS011;7652;53.584;9.998;2023-02-28T00:49:25;2.03;;;1.30;;
15102;SDS011;7652;53.584;9.998;2023-02-28T00:52:28;2.20;;;1.43;;
15102;SDS011;7652;53.584;9.998;2023-02-28T00:55:31;2.30;;;1.50;;
15102;SDS011;7652;53.584;9.998;2023-02-28T00:58:35;1.60;;;1.23;;
15102;SDS011;7652;53.584;9.998;2023-02-28T01:01:38;2.80;;;1.60;;
15102;SDS011;7652;53.584;9.998;2023-02-28T01:04:42;3.50;;;1.53;;
15102;SDS011;7652;53.584;9.998;2023-02-28T01:07:45;2.77;;;1.80;;
15102;SDS011;7652;53.584;9.998;2023-02-28T01:10:48;3.30;;;1.40;;
15102;SDS011;7652;53.584;9.998;2023-02-28T01:13:52;4.13;;;1.37;;
15102;SDS011;7652;53.584;9.998;2023-02-28T01:16:55;2.53;;;1.47;;
15102;SDS011;7652;53.584;9.998;2023-02-28T01:19:58;1.87;;;1.37;;
15102;SDS011;7652;53.584;9.998;2023-02-28T01:23:01;3.63;;;1.73;;
15102;SDS011;7652;53.584;9.998;2023-02-28T01:26:05;3.27;;;1.67;;
15102;SDS011;7652;53.584;9.998;2023-02-28T01:29:10;3.30;;;1.53;;
15102;SDS011;7652;53.584;9.998;2023-02-28T01:32:13;5.23;;;2.10;;
15102;SDS011;7652;53.584;9.998;2023-02-28T01:35:16;2.93;;;1.60;;
15102;SDS011;7652;53.584;9.998;2023-02-28T01:38:19;5.47;;;1.40;;
15102;SDS011;7652;53.584;9.998;2023-02-28T01:41:25;2.07;;;1.47;;
15102;SDS011;7652;53.584;9.998;2023-02-28T01:48:02;3.43;;;1.80;;
15102;SDS011;7652;53.584;9.998;2023-02-28T01:51:08;3.70;;;2.20;;
15102;SDS011;7652;53.584;9.998;2023-02-28T01:54:16;4.30;;;1.70;;
15102;SDS011;7652;53.584;9.998;2023-02-28T01:57:25;4.23;;;1.60;;
15102;SDS011;7652;53.584;9.998;2023-02-28T02:00:33;4.00;;;1.87;;
15102;SDS011;7652;53.584;9.998;2023-02-28T02:03:36;6.67;;;1.97;;
15102;SDS011;7652;53.584;9.998;2023-02-28T02:06:40;4.77;;;1.73;;
15102;SDS011;7652;53.584;9.998;2023-02-28T02:09:46;4.37;;;2.17;;
15102;SDS011;7652;53.584;9.998;2023-02-28T02:13:00;2.70;;;1.73;;
15102;SDS011;7652;53.584;9.998;2023-02-28T02:16:27;2.67;;;2.03;;
15102;SDS011;7652;53.584;9.998;2023-02-28T02:19:53;4.43;;;1.77;;
15102;SDS011;7652;53.584;9.998;2023-02-28T02:23:31;3.37;;;1.80;;
15102;SDS011;7652;53.584;9.998;2023-02-28T02:27:03;5.63;;;2.07;;
15102;SDS011;7652;53.584;9.998;2023-02-28T02:30:41;6.70;;;1.87;;
15102;SDS011;7652;53.584;9.998;2023-02-28T02:37:29;2.37;;;1.40;;
15102;SDS011;7652;53.584;9.998;2023-02-28T02:40:42;3.93;;;1.87;;
15102;SDS011;7652;53.584;9.998;2023-02-28T02:43:50;5.10;;;2.07;;
15102;SDS011;7652;53.584;9.998;2023-02-28T02:46:58;3.33;;;1.90;;
15102;SDS011;7652;53.584;9.998;2023-02-28T02:50:08;6.13;;;2.13;;
15102;SDS011;7652;53.584;9.998;2023-02-28T02:53:17;3.03;;;1.70;;
15102;SDS011;7652;53.584;9.998;2023-02-28T02:56:24;2.47;;;1.93;;
15102;SDS011;7652;53.584;9.998;2023-02-28T02:59:30;4.73;;;1.90;;
15102;SDS011;7652;53.584;9.998;2023-02-28T03:02:35;3.53;;;1.90;;
15102;SDS011;7652;53.584;9.998;2023-02-28T03:05:43;4.57;;;2.10;;
15102;SDS011;7652;53.584;9.998;2023-02-28T03:08:49;3.80;;;1.80;;
15102;SDS011;7652;53.584;9.998;2023-02-28T03:11:52;3.47;;;1.70;;
15102;SDS011;7652;53.584;9.998;2023-02-28T03:14:59;3.97;;;2.07;;
15102;SDS011;7652;53.584;9.998;2023-02-28T03:18:15;3.33;;;1.90;;
15102;SDS011;7652;53.584;9.998;2023-02-28T03:21:29;4.60;;;2.47;;
15102;SDS011;7652;53.584;9.998;2023-02-28T03:24:39;4.63;;;2.33;;
15102;SDS011;7652;53.584;9.998;2023-02-28T03:27:49;3.37;;;2.20;;
15102;SDS011;7652;53.584;9.998;2023-02-28T03:31:03;3.03;;;2.10;;
15102;SDS011;7652;53.584;9.998;2023-02-28T03:34:14;4.97;;;2.40;;
15102;SDS011;7652;53.584;9.998;2023-02-28T03:37:25;3.20;;;2.20;;
15102;SDS011;7652;53.584;9.998;2023-02-28T03:40:32;3.43;;;2.57;;
15102;SDS011;7652;53.584;9.998;2023-02-28T03:43:38;4.93;;;2.60;;
15102;SDS011;7652;53.584;9.998;2023-02-28T03:46:45;4.63;;;2.47;;
15102;SDS011;7652;53.584;9.998;2023-02-28T03:49:54;8.37;;;2.33;;
15102;SDS011;7652;53.584;9.998;2023-02-28T03:53:02;2.57;;;2.00;;
15102;SDS011;7652;53.584;9.998;2023-02-28T03:56:12;4.20;;;2.70;;
15102;SDS011;7652;53.584;9.998;2023-02-28T03:59:19;3.27;;;2.30;;
15102;SDS011;7652;53.584;9.998;2023-02-28T04:02:27;4.07;;;2.43;;
15102;SDS011;7652;53.584;9.998;2023-02-28T04:05:30;2.97;;;2.20;;
15102;SDS011;7652;53.584;9.998;2023-02-28T04:08:35;4.57;;;2.17;;
15102;SDS011;7652;53.584;9.998;2023-02-28T04:11:39;3.27;;;2.50;;
15102;SDS011;7652;53.584;9.998;2023-02-28T04:14:43;4.30;;;2.47;;
15102;SDS011;7652;53.584;9.998;2023-02-28T04:17:46;3.33;;;2.40;;
15102;SDS011;7652;53.584;9.998;2023-02-28T04:20:49;5.30;;;2.60;;
15102;SDS011;7652;53.584;9.998;2023-02-28T04:23:54;3.63;;;2.53;;
15102;SDS011;7652;53.584;9.998;2023-02-28T04:26:57;3.70;;;2.43;;
15102;SDS011;7652;53.584;9.998;2023-02-28T04:30:00;4.83;;;2.40;;
15102;SDS011;7652;53.584;9.998;2023-02-28T04:33:03;3.07;;;2.30;;
15102;SDS011;7652;53.584;9.998;2023-02-28T04:36:07;5.53;;;2.70;;
15102;SDS011;7652;53.584;9.998;2023-02-28T04:39:12;3.87;;;2.83;;
15102;SDS011;7652;53.584;9.998;2023-02-28T04:42:16;8.33;;;3.10;;
15102;SDS011;7652;53.584;9.998;2023-02-28T04:45:19;2.87;;;2.50;;
15102;SDS011;7652;53.584;9.998;2023-02-28T04:48:22;9.10;;;3.47;;
15102;SDS011;7652;53.584;9.998;2023-02-28T04:51:25;4.30;;;2.50;;
15102;SDS011;7652;53.584;9.998;2023-02-28T04:54:30;6.70;;;2.80;;
15102;SDS011;7652;53.584;9.998;2023-02-28T04:57:33;6.13;;;2.73;;
15102;SDS011;7652;53.584;9.998;2023-02-28T05:00:36;5.60;;;2.93;;
15102;SDS011;7652;53.584;9.998;2023-02-28T05:03:39;5.03;;;2.57;;
15102;SDS011;7652;53.584;9.998;2023-02-28T05:06:42;3.97;;;2.37;;
15102;SDS011;7652;53.584;9.998;2023-02-28T05:09:47;3.40;;;2.93;;
15102;SDS011;7652;53.584;9.998;2023-02-28T05:12:50;5.60;;;3.17;;
15102;SDS011;7652;53.584;9.998;2023-02-28T05:15:53;5.93;;;2.93;;
15102;SDS011;7652;53.584;9.998;2023-02-28T05:18:56;3.97;;;3.03;;
15102;SDS011;7652;53.584;9.998;2023-02-28T05:21:59;5.33;;;2.90;;
15102;SDS011;7652;53.584;9.998;2023-02-28T05:25:04;5.00;;;3.20;;
15102;SDS011;7652;53.584;9.998;2023-02-28T05:28:08;6.10;;;3.37;;
15102;SDS011;7652;53.584;9.998;2023-02-28T05:31:11;5.57;;;3.10;;
15102;SDS011;7652;53.584;9.998;2023-02-28T05:34:14;5.23;;;2.70;;
15102;SDS011;7652;53.584;9.998;2023-02-28T05:37:17;5.73;;;3.10;;
15102;SDS011;7652;53.584;9.998;2023-02-28T05:40:24;4.77;;;3.10;;
15102;SDS011;7652;53.584;9.998;2023-02-28T05:43:27;6.77;;;4.00;;
15102;SDS011;7652;53.584;9.998;2023-02-28T05:46:30;5.90;;;3.53;;
15102;SDS011;7652;53.584;9.998;2023-02-28T05:49:33;7.97;;;3.57;;
15102;SDS011;7652;53.584;9.998;2023-02-28T05:52:36;5.90;;;3.40;;
15102;SDS011;7652;53.584;9.998;2023-02-28T05:55:40;6.87;;;3.47;;
15102;SDS011;7652;53.584;9.998;2023-02-28T05:58:43;6.10;;;3.20;;
15102;SDS011;7652;53.584;9.998;2023-02-28T06:01:46;6.50;;;3.80;;
15102;SDS011;7652;53.584;9.998;2023-02-28T06:04:50;4.37;;;3.60;;
15102;SDS011;7652;53.584;9.998;2023-02-28T06:07:53;5.50;;;3.70;;
15102;SDS011;7652;53.584;9.998;2023-02-28T06:10:57;8.17;;;4.00;;
15102;SDS011;7652;53.584;9.998;2023-02-28T06:14:00;7.57;;;3.53;;
15102;SDS011;7652;53.584;9.998;2023-02-28T06:17:04;6.47;;;3.90;;
15102;SDS011;7652;53.584;9.998;2023-02-28T06:20:07;7.60;;;3.57;;
15102;SDS011;7652;53.584;9.998;2023-02-28T06:23:11;5.40;;;3.87;;
15102;SDS011;7652;53.584;9.998;2023-02-28T06:26:16;6.17;;;3.87;;
15102;SDS011;7652;53.584;9.998;2023-02-28T06:29:19;8.10;;;3.67;;
15102;SDS011;7652;53.584;9.998;2023-02-28T06:32:22;6.27;;;4.10;;
15102;SDS011;7652;53.584;9.998;2023-02-28T06:35:25;7.00;;;3.83;;
15102;SDS011;7652;53.584;9.998;2023-02-28T06:38:28;5.90;;;3.97;;
15102;SDS011;7652;53.584;9.998;2023-02-28T06:41:32;8.07;;;4.40;;
15102;SDS011;7652;53.584;9.998;2023-02-28T06:44:55;10.93;;;4.93;;
15102;SDS011;7652;53.584;9.998;2023-02-28T06:47:58;11.33;;;5.17;;
15102;SDS011;7652;53.584;9.998;2023-02-28T06:51:02;8.57;;;4.80;;
15102;SDS011;7652;53.584;9.998;2023-02-28T06:54:06;10.80;;;5.03;;
15102;SDS011;7652;53.584;9.998;2023-02-28T06:57:11;9.20;;;4.97;;
15102;SDS011;7652;53.584;9.998;2023-02-28T07:00:15;7.77;;;4.77;;
15102;SDS011;7652;53.584;9.998;2023-02-28T07:03:18;6.87;;;4.60;;
15102;SDS011;7652;53.584;9.998;2023-02-28T07:06:22;7.90;;;4.23;;
15102;SDS011;7652;53.584;9.998;2023-02-28T07:09:25;9.67;;;5.23;;
15102;SDS011;7652;53.584;9.998;2023-02-28T07:12:32;8.00;;;4.80;;
15102;SDS011;7652;53.584;9.998;2023-02-28T07:15:35;7.63;;;5.67;;
15102;SDS011;7652;53.584;9.998;2023-02-28T07:18:42;9.57;;;5.50;;
15102;SDS011;7652;53.584;9.998;2023-02-28T07:21:45;10.83;;;5.50;;
15102;SDS011;7652;53.584;9.998;2023-02-28T07:24:48;11.03;;;6.07;;
15102;SDS011;7652;53.584;9.998;2023-02-28T07:27:54;8.27;;;4.67;;
15102;SDS011;7652;53.584;9.998;2023-02-28T07:31:02;8.93;;;6.23;;
15102;SDS011;7652;53.584;9.998;2023-02-28T07:34:06;11.97;;;5.20;;
15102;SDS011;7652;53.584;9.998;2023-02-28T07:37:09;10.40;;;5.57;;
15102;SDS011;7652;53.584;9.998;2023-02-28T07:40:13;13.57;;;6.77;;
15102;SDS011;7652;53.584;9.998;2023-02-28T07:43:17;7.67;;;5.33;;
15102;SDS011;7652;53.584;9.998;2023-02-28T07:46:20;10.27;;;5.40;;
15102;SDS011;7652;53.584;9.998;2023-02-28T07:49:24;11.10;;;5.73;;
15102;SDS011;7652;53.584;9.998;2023-02-28T07:52:27;8.60;;;4.90;;
15102;SDS011;7652;53.584;9.998;2023-02-28T07:55:30;10.63;;;5.77;;
15102;SDS011;7652;53.584;9.998;2023-02-28T07:58:34;9.63;;;4.83;;
15102;SDS011;7652;53.584;9.998;2023-02-28T08:01:37;10.43;;;5.07;;
15102;SDS011;7652;53.584;9.998;2023-02-28T08:04:40;11.50;;;5.57;;
15102;SDS011;7652;53.584;9.998;2023-02-28T08:07:43;9.07;;;5.00;;
15102;SDS011;7652;53.584;9.998;2023-02-28T08:10:46;12.70;;;6.17;;
15102;SDS011;7652;53.584;9.998;2023-02-28T08:13:51;8.73;;;4.97;;
15102;SDS011;7652;53.584;9.998;2023-02-28T08:16:54;8.10;;;5.37;;
15102;SDS011;7652;53.584;9.998;2023-02-28T08:19:57;10.73;;;4.90;;
15102;SDS011;7652;53.584;9.998;2023-02-28T08:23:00;9.13;;;3.50;;
15102;SDS011;7652;53.584;9.998;2023-02-28T08:26:03;6.90;;;3.53;;
15102;SDS011;7652;53.584;9.998;2023-02-28T08:29:08;5.83;;;3.43;;
15102;SDS011;7652;53.584;9.998;2023-02-28T08:32:11;10.93;;;3.53;;
15102;SDS011;7652;53.584;9.998;2023-02-28T08:35:29;7.20;;;3.53;;
15102;SDS011;7652;53.584;9.998;2023-02-28T08:38:33;3.87;;;3.13;;
15102;SDS011;7652;53.584;9.998;2023-02-28T08:41:36;4.53;;;2.57;;
15102;SDS011;7652;53.584;9.998;2023-02-28T08:44:40;6.93;;;3.90;;
15102;SDS011;7652;53.584;9.998;2023-02-28T08:47:43;3.33;;;2.40;;
15102;SDS011;7652;53.584;9.998;2023-02-28T08:50:54;3.03;;;2.27;;
15102;SDS011;7652;53.584;9.998;2023-02-28T08:54:07;2.70;;;2.13;;
15102;SDS011;7652;53.584;9.998;2023-02-28T08:57:11;3.13;;;2.10;;
15102;SDS011;7652;53.584;9.998;2023-02-28T09:00:16;2.00;;;1.50;;
15102;SDS011;7652;53.584;9.998;2023-02-28T09:03:20;1.60;;;1.50;;
15102;SDS011;7652;53.584;9.998;2023-02-28T09:06:26;1.40;;;1.30;;
15102;SDS011;7652;53.584;9.998;2023-02-28T09:09:29;4.47;;;1.60;;
15102;SDS011;7652;53.584;9.998;2023-02-28T09:12:33;3.10;;;1.20;;
15102;SDS011;7652;53.584;9.998;2023-02-28T09:15:38;2.23;;;1.43;;
15102;SDS011;7652;53.584;9.998;2023-02-28T09:18:41;1.57;;;1.37;;
15102;SDS011;7652;53.584;9.998;2023-02-28T09:21:45;2.20;;;0.90;;
15102;SDS011;7652;53.584;9.998;2023-02-28T09:24:48;1.60;;;1.30;;
15102;SDS011;7652;53.584;9.998;2023-02-28T09:27:51;2.20;;;1.00;;
15102;SDS011;7652;53.584;9.998;2023-02-28T09:30:55;4.47;;;1.63;;
15102;SDS011;7652;53.584;9.998;2023-02-28T09:34:00;2.07;;;1.10;;
15102;SDS011;7652;53.584;9.998;2023-02-28T09:37:03;3.87;;;1.03;;
15102;SDS011;7652;53.584;9.998;2023-02-28T09:40:07;1.00;;;0.80;;
15102;SDS011;7652;53.584;9.998;2023-02-28T09:43:12;1.80;;;1.17;;
15102;SDS011;7652;53.584;9.998;2023-02-28T09:46:24;2.67;;;1.20;;
15102;SDS011;7652;53.584;9.998;2023-02-28T09:49:32;1.20;;;1.00;;
15102;SDS011;7652;53.584;9.998;2023-02-28T09:52:41;3.67;;;1.60;;
15102;SDS011;7652;53.584;9.998;2023-02-28T09:55:48;1.70;;;1.20;;
15102;SDS011;7652;53.584;9.998;2023-02-28T09:58:54;4.43;;;1.50;;
15102;SDS011;7652;53.584;9.998;2023-02-28T10:02:04;2.67;;;1.10;;
15102;SDS011;7652;53.584;9.998;2023-02-28T10:05:20;1.43;;;1.00;;
15102;SDS011;7652;53.584;9.998;2023-02-28T10:08:25;1.70;;;1.00;;
15102;SDS011;7652;53.584;9.998;2023-02-28T10:11:32;1.87;;;1.20;;
15102;SDS011;7652;53.584;9.998;2023-02-28T10:14:38;5.70;;;1.57;;
15102;SDS011;7652;53.584;9.998;2023-02-28T10:17:48;1.27;;;1.03;;
15102;SDS011;7652;53.584;9.998;2023-02-28T10:21:13;2.43;;;1.30;;
15102;SDS011;7652;53.584;9.998;2023-02-28T10:24:23;2.03;;;1.10;;
15102;SDS011;7652;53.584;9.998;2023-02-28T10:27:31;1.50;;;1.17;;
15102;SDS011;7652;53.584;9.998;2023-02-28T10:30:34;1.30;;;1.20;;
15102;SDS011;7652;53.584;9.998;2023-02-28T10:33:41;1.83;;;1.13;;
15102;SDS011;7652;53.584;9.998;2023-02-28T10:36:45;2.63;;;1.23;;
15102;SDS011;7652;53.584;9.998;2023-02-28T10:39:48;3.83;;;1.30;;
15102;SDS011;7652;53.584;9.998;2023-02-28T10:42:54;2.87;;;1.00;;
15102;SDS011;7652;53.584;9.998;2023-02-28T10:45:59;3.40;;;1.37;;
15102;SDS011;7652;53.584;9.998;2023-02-28T10:49:10;3.20;;;1.50;;
15102;SDS011;7652;53.584;9.998;2023-02-28T10:52:31;1.60;;;1.20;;
15102;SDS011;7652;53.584;9.998;2023-02-28T10:55:38;1.40;;;1.10;;
15102;SDS011;7652;53.584;9.998;2023-02-28T10:58:51;2.90;;;0.90;;
15102;SDS011;7652;53.584;9.998;2023-02-28T11:01:56;2.37;;;1.30;;
15102;SDS011;7652;53.584;9.998;2023-02-28T11:05:01;8.00;;;1.40;;
15102;SDS011;7652;53.584;9.998;2023-02-28T11:08:06;4.50;;;1.17;;
15102;SDS011;7652;53.584;9.998;2023-02-28T11:11:15;1.60;;;1.10;;
15102;SDS011;7652;53.584;9.998;2023-02-28T11:14:19;2.40;;;1.13;;
15102;SDS011;7652;53.584;9.998;2023-02-28T11:17:24;2.07;;;1.30;;
15102;SDS011;7652;53.584;9.998;2023-02-28T11:20:32;2.00;;;1.10;;
15102;SDS011;7652;53.584;9.998;2023-02-28T11:23:37;2.07;;;1.10;;
15102;SDS011;7652;53.584;9.998;2023-02-28T11:26:44;1.77;;;1.10;;
15102;SDS011;7652;53.584;9.998;2023-02-28T11:29:49;1.30;;;1.07;;
15102;SDS011;7652;53.584;9.998;2023-02-28T11:32:53;1.27;;;1.00;;
15102;SDS011;7652;53.584;9.998;2023-02-28T11:35:58;1.27;;;1.17;;
15102;SDS011;7652;53.584;9.998;2023-02-28T11:39:08;2.10;;;1.20;;
15102;SDS011;7652;53.584;9.998;2023-02-28T11:42:27;1.27;;;1.00;;
15102;SDS011;7652;53.584;9.998;2023-02-28T11:45:43;1.93;;;1.30;;
15102;SDS011;7652;53.584;9.998;2023-02-28T11:48:54;1.47;;;1.20;;
15102;SDS011;7652;53.584;9.998;2023-02-28T11:52:10;2.80;;;1.40;;
15102;SDS011;7652;53.584;9.998;2023-02-28T11:55:24;2.30;;;1.20;;
15102;SDS011;7652;53.584;9.998;2023-02-28T11:58:32;3.03;;;1.40;;
15102;SDS011;7652;53.584;9.998;2023-02-28T12:01:47;1.13;;;1.03;;
15102;SDS011;7652;53.584;9.998;2023-02-28T12:05:10;1.80;;;1.27;;
15102;SDS011;7652;53.584;9.998;2023-02-28T12:08:31;1.37;;;1.07;;
15102;SDS011;7652;53.584;9.998;2023-02-28T12:11:48;2.77;;;1.40;;
15102;SDS011;7652;53.584;9.998;2023-02-28T12:14:59;2.10;;;1.30;;
15102;SDS011;7652;53.584;9.998;2023-02-28T12:18:39;2.23;;;1.40;;
15102;SDS011;7652;53.584;9.998;2023-02-28T12:21:59;1.83;;;1.10;;
15102;SDS011;7652;53.584;9.998;2023-02-28T12:28:52;1.90;;;1.50;;
15102;SDS011;7652;53.584;9.998;2023-02-28T12:32:03;2.13;;;1.37;;
15102;SDS011;7652;53.584;9.998;2023-02-28T12:35:11;2.77;;;1.87;;
15102;SDS011;7652;53.584;9.998;2023-02-28T12:38:17;4.40;;;1.70;;
15102;SDS011;7652;53.584;9.998;2023-02-28T12:41:26;4.03;;;1.60;;
15102;SDS011;7652;53.584;9.998;2023-02-28T12:44:37;2.23;;;1.60;;
15102;SDS011;7652;53.584;9.998;2023-02-28T12:47:45;2.73;;;1.60;;
15102;SDS011;7652;53.584;9.998;2023-02-28T12:50:53;3.70;;;1.60;;
15102;SDS011;7652;53.584;9.998;2023-02-28T12:53:58;3.60;;;2.00;;
15102;SDS011;7652;53.584;9.998;2023-02-28T12:57:12;2.37;;;1.70;;
15102;SDS011;7652;53.584;9.998;2023-02-28T13:00:20;4.47;;;1.67;;
15102;SDS011;7652;53.584;9.998;2023-02-28T13:03:32;2.47;;;1.60;;
15102;SDS011;7652;53.584;9.998;2023-02-28T13:06:52;5.07;;;1.67;;
15102;SDS011;7652;53.584;9.998;2023-02-28T13:10:10;3.00;;;1.50;;
15102;SDS011;7652;53.584;9.998;2023-02-28T13:13:17;2.00;;;1.70;;
15102;SDS011;7652;53.584;9.998;2023-02-28T13:16:21;6.37;;;1.80;;
15102;SDS011;7652;53.584;9.998;2023-02-28T13:19:25;3.20;;;1.83;;
15102;SDS011;7652;53.584;9.998;2023-02-28T13:22:37;2.63;;;1.60;;
15102;SDS011;7652;53.584;9.998;2023-02-28T13:25:52;3.60;;;2.17;;
15102;SDS011;7652;53.584;9.998;2023-02-28T13:29:00;2.37;;;1.60;;
15102;SDS011;7652;53.584;9.998;2023-02-28T13:35:43;3.60;;;1.80;;
15102;SDS011;7652;53.584;9.998;2023-02-28T13:38:47;3.67;;;1.77;;
15102;SDS011;7652;53.584;9.998;2023-02-28T13:41:51;4.40;;;1.87;;
15102;SDS011;7652;53.584;9.998;2023-02-28T13:48:25;4.73;;;1.80;;
15102;SDS011;7652;53.584;9.998;2023-02-28T13:51:38;10.10;;;2.37;;
15102;SDS011;7652;53.584;9.998;2023-02-28T13:54:48;2.50;;;1.80;;
15102;SDS011;7652;53.584;9.998;2023-02-28T13:58:08;2.10;;;1.60;;
15102;SDS011;7652;53.584;9.998;2023-02-28T14:01:28;2.07;;;1.50;;
15102;SDS011;7652;53.584;9.998;2023-02-28T14:04:46;2.90;;;1.60;;
15102;SDS011;7652;53.584;9.998;2023-02-28T14:07:56;2.07;;;1.60;;
15102;SDS011;7652;53.584;9.998;2023-02-28T14:11:02;4.87;;;1.60;;
15102;SDS011;7652;53.584;9.998;2023-02-28T14:14:08;2.73;;;1.83;;
15102;SDS011;7652;53.584;9.998;2023-02-28T14:17:33;2.00;;;1.80;;
15102;SDS011;7652;53.584;9.998;2023-02-28T14:20:36;2.10;;;1.70;;
15102;SDS011;7652;53.584;9.998;2023-02-28T14:23:45;2.43;;;1.90;;
15102;SDS011;7652;53.584;9.998;2023-02-28T14:27:11;2.93;;;1.60;;
15102;SDS011;7652;53.584;9.998;2023-02-28T14:30:51;2.73;;;2.13;;
15102;SDS011;7652;53.584;9.998;2023-02-28T14:34:05;3.17;;;1.90;;
15102;SDS011;7652;53.584;9.998;2023-02-28T14:37:25;3.67;;;1.77;;
15102;SDS011;7652;53.584;9.998;2023-02-28T14:40:32;2.77;;;1.70;;
15102;SDS011;7652;53.584;9.998;2023-02-28T14:43:37;3.07;;;1.63;;
15102;SDS011;7652;53.584;9.998;2023-02-28T14:46:52;2.70;;;1.60;;
15102;SDS011;7652;53.584;9.998;2023-02-28T14:49:58;3.17;;;1.97;;
15102;SDS011;7652;53.584;9.998;2023-02-28T14:53:03;2.93;;;1.87;;
15102;SDS011;7652;53.584;9.998;2023-02-28T14:56:17;3.00;;;1.73;;
15102;SDS011;7652;53.584;9.998;2023-02-28T14:59:24;2.67;;;1.80;;
15102;SDS011;7652;53.584;9.998;2023-02-28T15:02:30;2.10;;;1.30;;
15102;SDS011;7652;53.584;9.998;2023-02-28T15:05:38;6.67;;;1.80;;
15102;SDS011;7652;53.584;9.998;2023-02-28T15:08:41;2.63;;;1.77;;
15102;SDS011;7652;53.584;9.998;2023-02-28T15:11:45;2.23;;;1.43;;
15102;SDS011;7652;53.584;9.998;2023-02-28T15:14:51;1.60;;;1.50;;
15102;SDS011;7652;53.584;9.998;2023-02-28T15:17:56;2.73;;;1.20;;
15102;SDS011;7652;53.584;9.998;2023-02-28T15:21:03;2.40;;;1.80;;
15102;SDS011;7652;53.584;9.998;2023-02-28T15:24:10;6.40;;;1.67;;
15102;SDS011;7652;53.584;9.998;2023-02-28T15:27:26;1.50;;;1.40;;
15102;SDS011;7652;53.584;9.998;2023-02-28T15:30:33;2.93;;;1.60;;
15102;SDS011;7652;53.584;9.998;2023-02-28T15:33:36;2.20;;;1.53;;
15102;SDS011;7652;53.584;9.998;2023-02-28T15:36:40;3.40;;;1.50;;
15102;SDS011;7652;53.584;9.998;2023-02-28T15:39:43;2.00;;;1.23;;
15102;SDS011;7652;53.584;9.998;2023-02-28T15:43:00;1.83;;;1.50;;
15102;SDS011;7652;53.584;9.998;2023-02-28T15:46:07;1.83;;;1.40;;
15102;SDS011;7652;53.584;9.998;2023-02-28T15:49:13;3.17;;;1.30;;
15102;SDS011;7652;53.584;9.998;2023-02-28T15:52:24;2.30;;;1.53;;
15102;SDS011;7652;53.584;9.998;2023-02-28T15:55:30;3.03;;;1.60;;
15102;SDS011;7652;53.584;9.998;2023-02-28T15:58:34;1.40;;;1.20;;
15102;SDS011;7652;53.584;9.998;2023-02-28T16:01:38;2.77;;;1.37;;
15102;SDS011;7652;53.584;9.998;2023-02-28T16:08:11;2.20;;;1.63;;
15102;SDS011;7652;53.584;9.998;2023-02-28T16:11:17;1.47;;;1.30;;
15102;SDS011;7652;53.584;9.998;2023-02-28T16:14:23;2.50;;;1.80;;
15102;SDS011;7652;53.584;9.998;2023-02-28T16:17:30;1.73;;;1.30;;
15102;SDS011;7652;53.584;9.998;2023-02-28T16:20:35;1.73;;;1.37;;
15102;SDS011;7652;53.584;9.998;2023-02-28T16:23:40;1.37;;;1.27;;
15102;SDS011;7652;53.584;9.998;2023-02-28T16:26:45;2.00;;;1.40;;
15102;SDS011;7652;53.584;9.998;2023-02-28T16:29:50;1.90;;;1.20;;
15102;SDS011;7652;53.584;9.998;2023-02-28T16:32:54;1.67;;;1.30;;
15102;SDS011;7652;53.584;9.998;2023-02-28T16:35:58;2.00;;;1.57;;
15102;SDS011;7652;53.584;9.998;2023-02-28T16:39:03;2.57;;;2.00;;
15102;SDS011;7652;53.584;9.998;2023-02-28T16:42:07;2.00;;;1.60;;
15102;SDS011;7652;53.584;9.998;2023-02-28T16:45:16;2.57;;;1.53;;
15102;SDS011;7652;53.584;9.998;2023-02-28T16:48:22;1.63;;;1.53;;
15102;SDS011;7652;53.584;9.998;2023-02-28T16:51:25;3.00;;;2.40;;
15102;SDS011;7652;53.584;9.998;2023-02-28T16:54:30;3.67;;;1.50;;
15102;SDS011;7652;53.584;9.998;2023-02-28T16:57:33;2.87;;;1.90;;
15102;SDS011;7652;53.584;9.998;2023-02-28T17:00:36;3.10;;;1.50;;
15102;SDS011;7652;53.584;9.998;2023-02-28T17:03:39;1.63;;;1.23;;
15102;SDS011;7652;53.584;9.998;2023-02-28T17:06:43;1.83;;;1.60;;
15102;SDS011;7652;53.584;9.998;2023-02-28T17:09:48;3.40;;;1.50;;
15102;SDS011;7652;53.584;9.998;2023-02-28T17:12:51;2.63;;;1.60;;
15102;SDS011;7652;53.584;9.998;2023-02-28T17:16:03;2.57;;;1.73;;
15102;SDS011;7652;53.584;9.998;2023-02-28T17:19:09;4.23;;;1.90;;
15102;SDS011;7652;53.584;9.998;2023-02-28T17:22:14;1.40;;;1.30;;
15102;SDS011;7652;53.584;9.998;2023-02-28T17:25:18;4.07;;;1.67;;
15102;SDS011;7652;53.584;9.998;2023-02-28T17:28:21;6.23;;;1.97;;
15102;SDS011;7652;53.584;9.998;2023-02-28T17:31:25;3.23;;;1.83;;
15102;SDS011;7652;53.584;9.998;2023-02-28T17:34:29;2.40;;;1.80;;
15102;SDS011;7652;53.584;9.998;2023-02-28T17:37:32;1.97;;;1.50;;
15102;SDS011;7652;53.584;9.998;2023-02-28T17:40:36;3.33;;;2.00;;
15102;SDS011;7652;53.584;9.998;2023-02-28T17:43:39;2.60;;;1.87;;
15102;SDS011;7652;53.584;9.998;2023-02-28T17:46:42;3.87;;;1.70;;
15102;SDS011;7652;53.584;9.998;2023-02-28T17:49:47;2.27;;;2.07;;
15102;SDS011;7652;53.584;9.998;2023-02-28T17:52:50;4.17;;;2.33;;
15102;SDS011;7652;53.584;9.998;2023-02-28T17:55:55;3.70;;;2.27;;
15102;SDS011;7652;53.584;9.998;2023-02-28T17:58:58;3.43;;;2.07;;
15102;SDS011;7652;53.584;9.998;2023-02-28T18:02:01;5.47;;;2.10;;
15102;SDS011;7652;53.584;9.998;2023-02-28T18:05:06;6.50;;;2.30;;
15102;SDS011;7652;53.584;9.998;2023-02-28T18:08:10;5.20;;;2.20;;
15102;SDS011;7652;53.584;9.998;2023-02-28T18:11:16;2.33;;;2.13;;
15102;SDS011;7652;53.584;9.998;2023-02-28T18:14:23;3.63;;;2.40;;
15102;SDS011;7652;53.584;9.998;2023-02-28T18:17:27;2.70;;;2.30;;
15102;SDS011;7652;53.584;9.998;2023-02-28T18:20:30;5.47;;;2.37;;
15102;SDS011;7652;53.584;9.998;2023-02-28T18:23:33;4.17;;;2.43;;
15102;SDS011;7652;53.584;9.998;2023-02-28T18:26:38;3.00;;;2.40;;
15102;SDS011;7652;53.584;9.998;2023-02-28T18:29:41;5.20;;;2.20;;
15102;SDS011;7652;53.584;9.998;2023-02-28T18:32:44;2.80;;;2.03;;
15102;SDS011;7652;53.584;9.998;2023-02-28T18:35:54;3.30;;;2.20;;
15102;SDS011;7652;53.584;9.998;2023-02-28T18:38:58;3.83;;;1.90;;
15102;SDS011;7652;53.584;9.998;2023-02-28T18:42:03;4.00;;;2.60;;
15102;SDS011;7652;53.584;9.998;2023-02-28T18:45:06;3.83;;;2.67;;
15102;SDS011;7652;53.584;9.998;2023-02-28T18:48:10;8.50;;;2.23;;
15102;SDS011;7652;53.584;9.998;2023-02-28T18:51:14;3.23;;;2.33;;
15102;SDS011;7652;53.584;9.998;2023-02-28T18:54:20;3.70;;;2.67;;
15102;SDS011;7652;53.584;9.998;2023-02-28T18:57:24;4.70;;;3.23;;
15102;SDS011;7652;53.584;9.998;2023-02-28T19:00:27;6.53;;;3.00;;
15102;SDS011;7652;53.584;9.998;2023-02-28T19:03:30;4.63;;;3.97;;
15102;SDS011;7652;53.584;9.998;2023-02-28T19:06:33;5.53;;;4.07;;
15102;SDS011;7652;53.584;9.998;2023-02-28T19:09:38;7.60;;;4.60;;
15102;SDS011;7652;53.584;9.998;2023-02-28T19:12:42;11.73;;;6.10;;
15102;SDS011;7652;53.584;9.998;2023-02-28T19:15:45;9.87;;;5.90;;
15102;SDS011;7652;53.584;9.998;2023-02-28T19:18:49;7.37;;;5.00;;
15102;SDS011;7652;53.584;9.998;2023-02-28T19:21:52;5.60;;;4.40;;